Airfield :
LOGIN :

Register | Disclaimer

   EN    FR    IT 

 










Legend :    VFR   Marginal VFR   IFR   Intensive IFR   Very Intensive IFR
Visi :
Ceiling :
>= 8 km
>= 3000ft
5 to 8 km
1000 to 3000 ft
1500m to 5 km
500 to 1000 ft
800 to 1500m
200 to 500 ft
< 800m
< 200 ft
Symbols :   Thunderstorms  Fog  Heavy snow  Heavy precipitations  Wind > 20 kt
SIGMETs :     Misc.  Thunderstorms  Icing  Turbulence  Mountain Waves  Volcanic Ashes







- Airport Elevation : 468 ft
- IATA code : GRO


LEGE - Girona Costa Brava

CURRENT METAR :
  • 210100Z 00000KT CAVOK 13/13 Q1019

EXPIRED METARs :
  • 210030Z VRB01KT CAVOK 13/13 Q1020
  • 210000Z 27002KT CAVOK 14/14 Q1020
  • 202330Z 27002KT 8000 NSC 14/14 Q1020
  • 202300Z 26001KT 8000 FEW003 14/14 Q1020
  • 202230Z 00000KT 4000 BR NSC 15/15 Q1020
  • 202200Z 00000KT CAVOK 15/15 Q1020

TAF TAF LEGE
Valid from the 21 at 00:00 until the 22 at 00:00 UTC


202300Z 2100/2124 VRB04KT 9999 FEW040 TX25/2112Z TN12/2106Z
PROB40
TEMPO 2100/2108 0800 FG VV002
No reported NOTAMs for that airfield.



MET'MAP, your aeronautical weather chart ! - Copyright ORBIFLY December 2007 - Disclaimer

ORBIFLY MET'MAP TEAM :

Programming & Development : Alexandra Zaïnal
Concept & Development : Baudouin d'Aumeries
Co-Development & Prog : Marc-Olivier Méhu
Technical & hardware support : Manuel Goepfert

Contact : metmap@orbifly.com




SOURCES & CREDITS :

   NOAA